createdAt,value
2022-10-31T00:03:55.615Z,19.28
2022-10-31T00:09:00.676Z,19.04
2022-10-31T00:14:03.319Z,18.87
2022-10-31T00:19:07.789Z,18.76
2022-10-31T00:24:09.570Z,18.62
2022-10-31T00:29:11.658Z,18.49
2022-10-31T00:34:13.465Z,18.40
2022-10-31T00:39:15.296Z,18.31
2022-10-31T00:44:17.070Z,18.24
2022-10-31T00:49:18.867Z,18.22
2022-10-31T00:54:20.646Z,18.19
2022-10-31T00:59:22.964Z,18.22
2022-10-31T01:04:26.342Z,18.19
2022-10-31T01:09:28.190Z,18.10
2022-10-31T01:14:30.030Z,18.07
2022-10-31T01:19:33.163Z,18.15
2022-10-31T01:24:34.984Z,18.30
2022-10-31T01:29:37.546Z,18.41
2022-10-31T01:34:39.415Z,18.49
2022-10-31T01:39:41.461Z,18.48
2022-10-31T01:44:43.419Z,18.36
2022-10-31T01:49:52.321Z,18.16
2022-10-31T01:55:01.927Z,18.03
2022-10-31T02:00:10.248Z,17.88
2022-10-31T02:05:21.104Z,17.79
2022-10-31T02:10:24.308Z,17.84
2022-10-31T02:15:26.673Z,17.79
2022-10-31T02:20:59.357Z,17.81
2022-10-31T02:26:07.449Z,17.74
2022-10-31T02:31:48.715Z,17.71
2022-10-31T02:36:53.346Z,17.56
2022-10-31T02:42:01.218Z,17.50
2022-10-31T02:47:19.171Z,17.39
2022-10-31T02:52:29.749Z,17.33
2022-10-31T02:57:39.588Z,17.21
2022-10-31T03:03:20.300Z,17.09
2022-10-31T03:08:43.419Z,16.96
2022-10-31T03:14:13.406Z,16.90
2022-10-31T03:19:27.712Z,16.86
2022-10-31T03:24:33.525Z,16.82
2022-10-31T03:29:39.008Z,16.80
2022-10-31T03:34:44.489Z,16.72
2022-10-31T03:39:49.265Z,16.60
2022-10-31T03:44:57.060Z,16.53
2022-10-31T03:49:59.134Z,16.53
2022-10-31T03:55:08.644Z,16.70
2022-10-31T04:00:14.036Z,16.75
2022-10-31T04:05:22.996Z,16.71
2022-10-31T04:10:31.999Z,16.63
2022-10-31T04:15:38.167Z,16.58
2022-10-31T04:20:42.397Z,16.59
2022-10-31T04:25:45.993Z,16.65
2022-10-31T04:30:47.934Z,16.69
2022-10-31T04:35:49.827Z,16.72
2022-10-31T04:40:51.985Z,16.85
2022-10-31T04:46:19.661Z,16.96
2022-10-31T04:51:21.506Z,17.03
2022-10-31T04:56:23.517Z,17.07
2022-10-31T05:01:31.820Z,17.02
2022-10-31T05:06:35.947Z,16.93
2022-10-31T05:11:37.950Z,16.84
2022-10-31T05:16:56.640Z,16.74
2022-10-31T05:22:24.482Z,16.68
2022-10-31T05:27:26.452Z,16.73
2022-10-31T05:32:28.436Z,16.78
2022-10-31T05:37:50.914Z,16.86
2022-10-31T05:42:54.496Z,16.89
2022-10-31T05:48:02.834Z,16.90
2022-10-31T05:53:43.623Z,16.90
2022-10-31T05:58:48.706Z,16.95
2022-10-31T06:03:50.849Z,17.01
2022-10-31T06:08:54.935Z,17.07
2022-10-31T06:13:58.261Z,17.03
2022-10-31T06:19:07.372Z,16.91
2022-10-31T06:24:10.360Z,16.91
2022-10-31T06:29:30.206Z,17.03
2022-10-31T06:34:38.808Z,17.18
2022-10-31T06:39:40.933Z,17.12
2022-10-31T06:44:46.124Z,17.56
2022-10-31T06:50:07.128Z,17.70
2022-10-31T06:55:09.980Z,17.86
2022-10-31T07:00:12.678Z,17.97
2022-10-31T07:05:23.909Z,18.23
2022-10-31T07:10:27.557Z,18.41
2022-10-31T07:15:36.898Z,18.61
2022-10-31T07:20:39.055Z,18.72
2022-10-31T07:25:41.569Z,18.85
2022-10-31T07:31:06.358Z,19.08
2022-10-31T07:36:08.487Z,19.29
2022-10-31T07:41:10.998Z,19.44
2022-10-31T07:46:17.552Z,19.61
2022-10-31T07:51:38.972Z,19.71
2022-10-31T07:57:01.749Z,19.99
2022-10-31T08:02:04.354Z,20.22
2022-10-31T08:07:06.134Z,20.43
2022-10-31T08:12:11.188Z,20.61
2022-10-31T08:17:14.339Z,20.85
2022-10-31T08:22:41.236Z,21.06
2022-10-31T08:27:53.137Z,21.23
2022-10-31T08:33:12.292Z,21.31
2022-10-31T08:38:32.745Z,21.50
2022-10-31T08:43:34.649Z,21.67
2022-10-31T08:48:36.554Z,21.63
2022-10-31T08:53:39.345Z,21.63
2022-10-31T08:59:04.230Z,21.92
2022-10-31T09:04:17.590Z,22.27
2022-10-31T09:09:19.475Z,22.55
2022-10-31T09:14:22.108Z,22.77
2022-10-31T09:19:42.545Z,22.95
2022-10-31T09:24:44.349Z,22.95
2022-10-31T09:29:46.182Z,23.08
2022-10-31T09:34:48.542Z,23.18
2022-10-31T09:39:54.806Z,23.28
2022-10-31T09:45:37.160Z,23.33
2022-10-31T09:50:53.601Z,23.18
2022-10-31T09:56:21.002Z,23.32
2022-10-31T10:01:34.095Z,23.54
2022-10-31T10:06:42.330Z,23.52
2022-10-31T10:12:24.726Z,23.55
2022-10-31T10:17:32.944Z,23.77
2022-10-31T10:22:53.849Z,23.95
2022-10-31T10:28:01.635Z,24.00
2022-10-31T10:33:13.295Z,23.92
2022-10-31T10:38:39.282Z,23.87
2022-10-31T10:43:41.085Z,23.81
2022-10-31T10:48:56.315Z,23.85
2022-10-31T10:54:22.146Z,23.93
2022-10-31T10:59:24.170Z,23.83
2022-10-31T11:04:40.785Z,23.77
2022-10-31T11:09:42.710Z,23.73
2022-10-31T11:14:51.048Z,23.75
2022-10-31T11:20:33.024Z,23.75
2022-10-31T11:25:34.818Z,23.68
2022-10-31T11:30:45.566Z,23.63
2022-10-31T11:35:51.013Z,23.68
2022-10-31T11:41:06.603Z,23.80
2022-10-31T11:46:16.495Z,23.96
2022-10-31T11:51:34.449Z,24.04
2022-10-31T11:56:41.138Z,24.04
2022-10-31T12:01:49.569Z,24.14
2022-10-31T12:06:53.904Z,24.24
2022-10-31T12:12:24.143Z,24.40
2022-10-31T12:17:35.649Z,24.47
2022-10-31T12:22:49.239Z,24.57
2022-10-31T12:27:57.263Z,24.55
2022-10-31T12:33:15.249Z,24.65
2022-10-31T12:38:32.408Z,24.94
2022-10-31T12:43:47.352Z,25.13
2022-10-31T12:49:13.502Z,25.39
2022-10-31T12:54:18.175Z,25.65
2022-10-31T12:59:31.292Z,26.67
2022-10-31T13:04:41.870Z,28.70
2022-10-31T13:10:10.238Z,30.78
2022-10-31T13:15:20.203Z,32.56
2022-10-31T13:20:31.129Z,33.95
2022-10-31T13:25:42.008Z,34.90
2022-10-31T13:30:44.543Z,35.48
2022-10-31T13:35:58.622Z,36.01
2022-10-31T13:41:23.321Z,36.50
2022-10-31T13:46:36.820Z,36.59
2022-10-31T13:51:38.652Z,36.09
2022-10-31T13:56:41.060Z,35.94
2022-10-31T14:01:57.892Z,36.15
2022-10-31T14:07:07.310Z,34.81
2022-10-31T14:12:31.095Z,31.85
2022-10-31T14:17:46.043Z,29.97
2022-10-31T14:22:48.071Z,28.68
2022-10-31T14:27:49.964Z,27.80
2022-10-31T14:32:58.675Z,26.93
2022-10-31T14:38:19.085Z,26.23
2022-10-31T14:43:20.941Z,25.64
2022-10-31T14:48:30.868Z,25.23
2022-10-31T14:53:55.227Z,24.89
2022-10-31T14:59:01.747Z,24.59
2022-10-31T15:04:29.451Z,24.30
2022-10-31T15:09:33.671Z,23.90
2022-10-31T15:14:35.736Z,23.57
2022-10-31T15:19:38.896Z,23.34
2022-10-31T15:24:40.864Z,23.11
2022-10-31T15:29:52.259Z,22.83
2022-10-31T15:34:56.989Z,22.56
2022-10-31T15:40:08.657Z,22.24
2022-10-31T15:45:10.441Z,21.95
2022-10-31T15:50:23.444Z,21.65
2022-10-31T15:55:29.155Z,21.35
2022-10-31T16:00:41.009Z,21.16
2022-10-31T16:05:48.419Z,21.00
2022-10-31T16:10:50.362Z,20.81
2022-10-31T16:16:21.355Z,20.56
2022-10-31T16:21:29.884Z,20.30
2022-10-31T16:26:32.315Z,20.08
2022-10-31T16:31:40.947Z,19.93
2022-10-31T16:36:43.343Z,19.81
2022-10-31T16:41:49.194Z,19.79
2022-10-31T16:47:14.620Z,19.73
2022-10-31T16:52:18.215Z,19.59
2022-10-31T16:57:27.445Z,19.48
2022-10-31T17:02:29.921Z,19.40
2022-10-31T17:07:31.783Z,19.32
2022-10-31T17:12:34.187Z,19.24
2022-10-31T17:17:35.990Z,19.15
2022-10-31T17:27:47.309Z,18.93
2022-10-31T17:32:50.259Z,18.88
2022-10-31T17:37:52.139Z,18.92
2022-10-31T17:42:57.031Z,18.93
2022-10-31T17:47:58.958Z,18.87
2022-10-31T17:53:01.212Z,18.80
2022-10-31T17:58:03.474Z,18.72
2022-10-31T18:03:05.726Z,18.68
2022-10-31T18:08:07.708Z,18.67
2022-10-31T18:13:09.542Z,18.63
2022-10-31T18:18:11.451Z,18.66
2022-10-31T18:23:13.244Z,18.65
2022-10-31T18:28:15.126Z,18.52
2022-10-31T18:33:17.097Z,18.50
2022-10-31T18:38:19.397Z,18.48
2022-10-31T18:43:21.332Z,18.43
2022-10-31T18:48:23.307Z,18.38
2022-10-31T18:53:25.621Z,18.35
2022-10-31T18:58:29.065Z,18.28
2022-10-31T19:03:31.124Z,18.17
2022-10-31T19:08:33.806Z,18.05
2022-10-31T19:13:37.037Z,17.94
2022-10-31T19:18:40.007Z,17.85
2022-10-31T19:23:42.682Z,17.69
2022-10-31T19:28:44.894Z,17.59
2022-10-31T19:33:47.713Z,17.53
2022-10-31T19:38:52.541Z,17.53
2022-10-31T19:43:55.983Z,17.55
2022-10-31T19:48:59.127Z,17.60
2022-10-31T19:54:01.113Z,17.61
2022-10-31T19:59:05.148Z,17.61
2022-10-31T20:04:07.445Z,17.59
2022-10-31T20:09:13.910Z,17.44
2022-10-31T20:14:17.794Z,17.41
2022-10-31T20:19:19.671Z,17.19
2022-10-31T20:24:22.118Z,16.97
2022-10-31T20:29:24.234Z,17.12
2022-10-31T20:34:26.351Z,17.26
2022-10-31T20:39:28.531Z,17.31
2022-10-31T20:44:30.968Z,17.29
2022-10-31T20:49:35.323Z,17.30
2022-10-31T20:54:37.206Z,17.39
2022-10-31T20:59:39.084Z,17.45
2022-10-31T21:04:43.920Z,17.52
2022-10-31T21:09:45.975Z,17.53
2022-10-31T21:14:50.872Z,17.55
2022-10-31T21:19:52.771Z,17.55
2022-10-31T21:24:54.630Z,17.61
2022-10-31T21:29:56.471Z,17.56
2022-10-31T21:34:58.362Z,17.55
2022-10-31T21:40:00.178Z,17.53
2022-10-31T21:45:02.045Z,17.44
2022-10-31T21:50:04.001Z,17.33
2022-10-31T21:55:06.367Z,17.25
2022-10-31T22:00:09.161Z,17.24
2022-10-31T22:05:11.452Z,17.24
2022-10-31T22:10:13.289Z,17.25
2022-10-31T22:15:15.123Z,17.22
2022-10-31T22:20:17.026Z,17.17
2022-10-31T22:25:18.834Z,17.15
2022-10-31T22:30:20.663Z,17.10
2022-10-31T22:35:22.504Z,16.84
2022-10-31T22:40:24.315Z,16.64
2022-10-31T22:45:26.123Z,16.62
2022-10-31T22:50:27.956Z,16.50
2022-10-31T22:55:29.815Z,16.43
2022-10-31T23:00:31.895Z,16.33
2022-10-31T23:05:33.727Z,16.19
2022-10-31T23:10:41.260Z,16.16
2022-10-31T23:15:43.181Z,16.15
2022-10-31T23:20:51.391Z,16.14
2022-10-31T23:26:11.933Z,15.84
2022-10-31T23:31:14.434Z,16.08
2022-10-31T23:36:16.407Z,16.02
2022-10-31T23:41:18.396Z,15.98
2022-10-31T23:46:20.260Z,15.62
2022-10-31T23:51:22.180Z,15.87
2022-10-31T23:56:24.017Z,15.88
